createdAt,value
2018-11-29T00:00:17.892Z,8.00
2018-11-29T00:01:17.769Z,7.90
2018-11-29T00:03:42.322Z,8.90
2018-11-29T00:04:42.290Z,8.00
2018-11-29T00:05:42.124Z,8.30
2018-11-29T00:06:42.105Z,7.30
2018-11-29T00:07:41.949Z,8.10
2018-11-29T00:08:41.939Z,8.30
2018-11-29T00:09:41.798Z,7.90
2018-11-29T00:10:41.726Z,7.80
2018-11-29T00:11:41.630Z,8.20
2018-11-29T00:14:23.851Z,8.50
2018-11-29T00:17:05.798Z,7.10
2018-11-29T00:18:05.736Z,7.90
2018-11-29T00:19:05.647Z,7.50
2018-11-29T00:20:05.642Z,6.80
2018-11-29T00:21:05.463Z,7.80
2018-11-29T00:22:05.453Z,7.60
2018-11-29T00:23:05.283Z,7.00
2018-11-29T00:24:05.283Z,8.00
2018-11-29T00:25:05.121Z,8.00
2018-11-29T00:27:29.798Z,7.90
2018-11-29T00:28:29.756Z,7.80
2018-11-29T00:29:29.658Z,8.20
2018-11-29T00:30:29.672Z,7.60
2018-11-29T00:31:29.458Z,7.80
2018-11-29T00:32:29.505Z,7.10
2018-11-29T00:33:29.294Z,7.60
2018-11-29T00:34:32.490Z,7.40
2018-11-29T00:35:29.113Z,7.70
2018-11-29T00:42:50.009Z,7.40
2018-11-29T00:43:49.928Z,7.80
2018-11-29T00:44:49.832Z,7.50
2018-11-29T00:45:49.784Z,7.20
2018-11-29T00:46:49.663Z,8.10
2018-11-29T00:48:34.398Z,8.00
2018-11-29T00:48:49.558Z,7.70
2018-11-29T00:49:49.392Z,7.60
2018-11-29T00:50:49.396Z,7.90
2018-11-29T00:51:49.218Z,8.10
2018-11-29T00:52:53.264Z,7.20
2018-11-29T00:53:49.083Z,7.50
2018-11-29T00:54:48.992Z,7.10
2018-11-29T00:55:48.883Z,8.40
2018-11-29T00:56:49.861Z,8.00
2018-11-29T00:57:48.712Z,8.10
2018-11-29T01:00:34.828Z,7.60
2018-11-29T01:01:35.853Z,7.60
2018-11-29T01:02:34.632Z,7.10
2018-11-29T01:03:34.615Z,7.20
2018-11-29T01:04:34.461Z,7.10
2018-11-29T01:05:34.455Z,7.80
2018-11-29T01:06:34.290Z,7.90
2018-11-29T01:07:34.235Z,7.50
2018-11-29T01:08:34.132Z,7.20
2018-11-29T01:11:16.329Z,7.10
2018-11-29T01:12:37.202Z,7.30
2018-11-29T01:13:16.134Z,7.40
2018-11-29T01:14:16.156Z,6.90
2018-11-29T01:15:15.968Z,7.00
2018-11-29T01:16:15.993Z,7.20
2018-11-29T01:17:15.808Z,6.70
2018-11-29T01:18:15.764Z,7.70
2018-11-29T01:19:15.621Z,7.60
2018-11-29T01:20:15.573Z,7.10
2018-11-29T01:21:15.621Z,7.20
2018-11-29T01:22:15.427Z,7.20
2018-11-29T01:39:38.991Z,7.60
2018-11-29T01:40:37.760Z,7.60
2018-11-29T01:43:19.839Z,6.90
2018-11-29T01:44:19.856Z,7.70
2018-11-29T01:45:19.638Z,7.50
2018-11-29T01:46:19.650Z,7.70
2018-11-29T01:47:19.470Z,8.10
2018-11-29T01:48:19.490Z,7.40
2018-11-29T01:49:19.298Z,7.40
2018-11-29T01:50:19.269Z,7.10
2018-11-29T01:51:19.140Z,7.00
2018-11-29T01:52:19.076Z,7.30
2018-11-29T01:53:18.989Z,7.50
2018-11-29T01:54:18.986Z,7.90
2018-11-29T01:55:18.788Z,7.50
2018-11-29T01:56:18.798Z,7.60
2018-11-29T01:57:18.626Z,7.70
2018-11-29T01:58:19.658Z,7.50
2018-11-29T01:59:18.453Z,8.40
2018-11-29T02:00:18.415Z,7.50
2018-11-29T02:01:18.293Z,7.90
2018-11-29T02:02:20.267Z,6.80
2018-11-29T02:03:18.111Z,7.20
2018-11-29T02:04:19.093Z,7.80
2018-11-29T02:05:17.971Z,7.70
2018-11-29T02:06:17.940Z,7.00
2018-11-29T02:07:17.779Z,7.30
2018-11-29T02:08:17.757Z,7.40
2018-11-29T02:09:17.630Z,6.90
2018-11-29T02:10:17.553Z,7.00
2018-11-29T02:11:17.441Z,8.00
2018-11-29T02:12:17.358Z,7.10
2018-11-29T02:13:17.276Z,7.30
2018-11-29T02:14:17.329Z,7.90
2018-11-29T02:15:17.097Z,7.90
2018-11-29T02:16:17.085Z,7.50
2018-11-29T02:17:16.924Z,8.50
2018-11-29T02:18:16.904Z,8.30
2018-11-29T02:19:16.797Z,7.30
2018-11-29T02:20:20.018Z,7.90
2018-11-29T02:21:16.644Z,7.90
2018-11-29T02:22:16.619Z,8.50
2018-11-29T02:23:16.424Z,7.60
2018-11-29T02:24:16.428Z,8.30
2018-11-29T02:25:16.283Z,8.50
2018-11-29T02:26:18.328Z,8.40
2018-11-29T02:27:16.082Z,7.80
2018-11-29T02:28:16.054Z,8.80
2018-11-29T02:29:15.913Z,7.90
2018-11-29T02:30:15.884Z,8.40
2018-11-29T02:31:15.796Z,7.50
2018-11-29T02:32:17.706Z,8.50
2018-11-29T02:33:15.583Z,8.20
2018-11-29T02:34:15.574Z,8.30
2018-11-29T02:35:15.441Z,8.70
2018-11-29T02:36:15.422Z,8.50
2018-11-29T02:37:15.243Z,8.70
2018-11-29T02:38:19.295Z,8.10
2018-11-29T02:39:15.068Z,8.50
2018-11-29T02:40:15.031Z,8.10
2018-11-29T02:41:14.895Z,9.10
2018-11-29T02:42:14.907Z,8.40
2018-11-29T02:43:14.743Z,8.20
2018-11-29T02:46:00.891Z,9.00
2018-11-29T02:47:00.817Z,9.30
2018-11-29T02:48:00.651Z,8.30
2018-11-29T02:49:00.618Z,9.20
2018-11-29T02:50:00.478Z,9.20
2018-11-29T02:52:25.316Z,9.10
2018-11-29T02:53:25.326Z,8.50
2018-11-29T02:54:25.155Z,8.90
2018-11-29T02:55:25.129Z,9.20
2018-11-29T02:56:25.009Z,9.40
2018-11-29T02:57:24.961Z,9.50
2018-11-29T02:58:24.834Z,8.70
2018-11-29T02:59:24.755Z,9.70
2018-11-29T03:00:24.678Z,9.40
2018-11-29T03:03:06.856Z,9.70
2018-11-29T03:05:48.821Z,9.00
2018-11-29T03:09:55.325Z,8.60
2018-11-29T03:10:55.338Z,10.20
2018-11-29T03:11:55.192Z,9.80
2018-11-29T03:12:55.196Z,10.10
2018-11-29T03:13:54.991Z,8.80
2018-11-29T03:16:37.432Z,9.50
2018-11-29T03:19:01.333Z,10.40
2018-11-29T03:34:19.197Z,9.70
2018-11-29T03:35:19.048Z,10.80
2018-11-29T03:36:18.972Z,9.70
2018-11-29T03:37:18.879Z,10.40
2018-11-29T03:38:18.915Z,10.00
2018-11-29T03:39:18.705Z,10.80
2018-11-29T03:40:20.675Z,9.60
2018-11-29T03:41:18.536Z,10.30
2018-11-29T03:42:18.500Z,10.70
2018-11-29T03:43:18.359Z,10.10
2018-11-29T03:44:18.311Z,10.60
2018-11-29T03:45:18.235Z,10.80
2018-11-29T03:48:00.326Z,11.20
2018-11-29T03:49:00.327Z,10.90
2018-11-29T03:50:00.219Z,10.40
2018-11-29T03:51:00.133Z,11.20
2018-11-29T03:52:00.006Z,9.40
2018-11-29T03:52:59.937Z,11.60
2018-11-29T03:53:59.861Z,10.40
2018-11-29T03:56:41.848Z,10.60
2018-11-29T03:57:41.856Z,10.20
2018-11-29T03:58:41.656Z,10.90
2018-11-29T03:59:41.694Z,10.10
2018-11-29T04:00:41.492Z,10.80
2018-11-29T04:01:41.486Z,11.40
2018-11-29T04:02:41.319Z,11.60
2018-11-29T04:03:41.392Z,9.50
2018-11-29T04:04:41.716Z,10.00
2018-11-29T04:05:41.546Z,11.10
2018-11-29T04:06:42.852Z,10.60
2018-11-29T04:07:41.008Z,10.60
2018-11-29T04:08:40.817Z,11.10
2018-11-29T04:09:40.866Z,11.70
2018-11-29T04:10:40.652Z,9.90
2018-11-29T04:11:40.615Z,10.80
2018-11-29T04:15:04.870Z,11.00
2018-11-29T04:16:04.812Z,11.90
2018-11-29T04:17:04.670Z,10.50
2018-11-29T04:19:46.851Z,11.10
2018-11-29T04:20:46.856Z,10.90
2018-11-29T04:21:46.698Z,11.30
2018-11-29T04:24:40.834Z,11.00
2018-11-29T04:25:40.974Z,10.50
2018-11-29T04:26:40.665Z,10.70
2018-11-29T04:27:40.622Z,11.40
2018-11-29T04:28:40.487Z,11.10
2018-11-29T04:29:42.507Z,11.20
2018-11-29T04:30:40.357Z,11.20
2018-11-29T04:31:40.353Z,10.60
2018-11-29T04:32:40.156Z,11.70
2018-11-29T04:33:40.159Z,11.60
2018-11-29T04:34:39.980Z,11.30
2018-11-29T04:35:40.002Z,11.60
2018-11-29T04:36:39.820Z,11.40
2018-11-29T04:37:39.777Z,11.40
2018-11-29T04:38:39.649Z,11.90
2018-11-29T04:39:39.601Z,10.40
2018-11-29T04:40:39.490Z,11.50
2018-11-29T04:41:39.533Z,11.60
2018-11-29T04:44:03.837Z,11.50
2018-11-29T04:45:03.784Z,11.40
2018-11-29T04:46:03.684Z,11.60
2018-11-29T04:47:04.648Z,10.70
2018-11-29T04:48:09.862Z,10.40
2018-11-29T04:49:03.502Z,11.00
2018-11-29T04:50:03.334Z,11.00
2018-11-29T04:51:03.309Z,10.50
2018-11-29T04:52:03.196Z,11.70
2018-11-29T04:54:45.356Z,16.50
2018-11-29T04:55:45.422Z,56.80
2018-11-29T04:56:45.190Z,13.60
2018-11-29T04:57:50.448Z,11.90
2018-11-29T04:58:45.001Z,11.50
2018-11-29T04:59:44.941Z,11.90
2018-11-29T05:00:44.846Z,11.90
2018-11-29T05:01:44.842Z,12.00
2018-11-29T05:02:44.718Z,11.30
2018-11-29T05:03:44.660Z,11.20
2018-11-29T05:04:44.495Z,11.70
2018-11-29T05:05:44.468Z,12.60
2018-11-29T05:06:44.332Z,11.30
2018-11-29T05:07:44.275Z,11.90
2018-11-29T05:08:44.241Z,12.00
2018-11-29T05:09:44.135Z,11.30
2018-11-29T05:10:44.012Z,12.40
2018-11-29T05:11:44.003Z,10.90
2018-11-29T05:12:43.842Z,13.00
2018-11-29T05:13:43.816Z,12.10
2018-11-29T05:14:43.681Z,12.80
2018-11-29T05:17:25.847Z,12.90
2018-11-29T05:20:07.894Z,11.00
2018-11-29T05:21:07.824Z,13.80
2018-11-29T05:22:07.679Z,12.20
2018-11-29T05:23:09.677Z,13.40
2018-11-29T05:24:07.545Z,13.10
2018-11-29T05:26:49.361Z,12.10
2018-11-29T05:29:31.390Z,12.90
2018-11-29T05:30:31.329Z,11.60
2018-11-29T05:31:31.185Z,13.30
2018-11-29T05:57:57.155Z,12.90
2018-11-29T06:00:39.401Z,14.30
2018-11-29T06:02:00.243Z,13.20
2018-11-29T06:02:39.194Z,11.90
2018-11-29T06:03:39.107Z,14.20
2018-11-29T06:04:39.014Z,15.10
2018-11-29T06:05:39.504Z,14.10
2018-11-29T06:06:38.837Z,13.30
2018-11-29T06:07:38.765Z,11.20
2018-11-29T06:08:38.671Z,13.40
2018-11-29T06:09:38.602Z,13.50
2018-11-29T06:10:38.543Z,12.60
2018-11-29T06:11:38.427Z,15.00
2018-11-29T06:12:38.337Z,14.10
2018-11-29T06:15:20.448Z,12.40
2018-11-29T06:16:20.308Z,14.20
2018-11-29T06:17:20.192Z,15.00
2018-11-29T06:18:20.118Z,15.30
2018-11-29T06:19:20.007Z,13.40
2018-11-29T06:20:19.975Z,14.70
2018-11-29T06:21:19.853Z,14.90
2018-11-29T06:22:19.766Z,15.30
2018-11-29T06:23:19.671Z,14.60
2018-11-29T06:24:19.600Z,15.00
2018-11-29T06:25:19.520Z,15.80
2018-11-29T06:26:19.484Z,14.10
2018-11-29T06:27:19.343Z,14.30
2018-11-29T06:28:19.263Z,13.60
2018-11-29T06:29:19.167Z,14.90
2018-11-29T06:30:19.196Z,10.60
2018-11-29T06:31:19.025Z,12.20
2018-11-29T06:43:49.657Z,14.40
2018-11-29T06:44:49.534Z,13.20
2018-11-29T06:45:49.453Z,14.30
2018-11-29T06:46:49.409Z,13.00
2018-11-29T06:47:49.291Z,13.00
2018-11-29T06:48:49.198Z,13.80
2018-11-29T06:49:49.125Z,10.90
2018-11-29T06:50:49.028Z,12.20
2018-11-29T06:51:50.098Z,12.10
2018-11-29T06:52:48.888Z,11.40
2018-11-29T06:53:48.785Z,12.90
2018-11-29T06:54:48.690Z,12.50
2018-11-29T06:55:49.662Z,12.70
2018-11-29T06:56:48.567Z,13.80
2018-11-29T06:59:30.364Z,13.00
2018-11-29T07:00:30.290Z,13.70
2018-11-29T07:01:30.190Z,12.10
2018-11-29T07:02:30.156Z,12.70
2018-11-29T07:03:30.019Z,12.90
2018-11-29T07:06:12.388Z,11.80
2018-11-29T07:07:12.365Z,12.60
2018-11-29T07:08:12.207Z,12.60
2018-11-29T07:09:12.112Z,12.70
2018-11-29T07:10:12.025Z,11.80
2018-11-29T07:11:11.949Z,13.80
2018-11-29T07:12:11.848Z,12.80
2018-11-29T07:13:12.814Z,11.70
2018-11-29T07:14:11.685Z,12.40
2018-11-29T07:15:11.602Z,13.10
2018-11-29T07:16:11.519Z,13.20
2018-11-29T07:17:11.450Z,12.50
2018-11-29T07:18:11.388Z,12.40
2018-11-29T07:19:15.000Z,12.40
2018-11-29T07:20:11.174Z,12.40
2018-11-29T07:21:11.107Z,12.30
2018-11-29T07:22:11.006Z,12.50
2018-11-29T07:23:11.968Z,12.50
2018-11-29T07:24:10.837Z,12.70
2018-11-29T07:26:52.871Z,12.10
2018-11-29T07:27:52.788Z,12.20
2018-11-29T07:28:52.727Z,12.10
2018-11-29T07:29:52.624Z,11.60
2018-11-29T07:30:52.527Z,11.40
2018-11-29T07:31:52.461Z,11.30
2018-11-29T07:32:52.374Z,11.60
2018-11-29T07:33:53.305Z,11.20
2018-11-29T07:34:52.221Z,10.30
2018-11-29T07:35:52.160Z,11.30
2018-11-29T07:36:52.022Z,11.80
2018-11-29T07:37:51.969Z,12.40
2018-11-29T07:38:51.851Z,11.30
2018-11-29T07:39:51.772Z,12.20
2018-11-29T07:40:51.714Z,11.00
2018-11-29T07:43:33.867Z,12.10
2018-11-29T07:44:33.834Z,11.50
2018-11-29T07:45:33.717Z,11.90
2018-11-29T07:46:33.639Z,11.90
2018-11-29T07:47:33.530Z,11.20
2018-11-29T07:50:15.429Z,10.60
2018-11-29T07:51:15.285Z,12.30
2018-11-29T07:52:15.228Z,12.60
2018-11-29T07:53:16.279Z,10.20
2018-11-29T07:54:15.042Z,12.30
2018-11-29T07:55:14.985Z,12.20
2018-11-29T07:56:14.859Z,11.70
2018-11-29T07:58:56.871Z,10.70
2018-11-29T07:59:56.792Z,10.30
2018-11-29T08:00:56.730Z,11.70
2018-11-29T08:03:21.398Z,12.20
2018-11-29T08:04:21.295Z,11.40
2018-11-29T08:05:21.241Z,10.50
2018-11-29T08:06:21.171Z,12.40
2018-11-29T08:07:21.031Z,10.90
2018-11-29T08:08:20.989Z,12.40
2018-11-29T08:09:20.893Z,11.70
2018-11-29T08:10:20.785Z,12.70
2018-11-29T08:11:20.699Z,12.10
2018-11-29T08:12:20.633Z,11.60
2018-11-29T08:13:20.559Z,12.10
2018-11-29T08:14:20.495Z,12.30
2018-11-29T08:15:20.358Z,11.10
2018-11-29T08:16:20.330Z,12.40
2018-11-29T08:17:20.201Z,9.90
2018-11-29T08:18:20.108Z,13.30
2018-11-29T08:19:20.023Z,12.90
2018-11-29T08:20:19.949Z,11.90
2018-11-29T08:21:19.850Z,11.70
2018-11-29T08:22:19.809Z,11.80
2018-11-29T08:23:19.685Z,13.00
2018-11-29T08:24:19.613Z,11.90
2018-11-29T08:25:19.531Z,12.30
2018-11-29T08:26:20.470Z,13.00
2018-11-29T08:27:19.346Z,13.30
2018-11-29T08:30:01.989Z,13.40
2018-11-29T08:31:01.649Z,12.50
2018-11-29T08:32:01.528Z,13.40
2018-11-29T08:33:01.124Z,12.80
2018-11-29T08:34:01.105Z,13.40
2018-11-29T08:36:42.894Z,10.60
2018-11-29T08:37:42.804Z,12.30
2018-11-29T08:38:42.743Z,12.40
2018-11-29T08:39:42.666Z,11.70
2018-11-29T08:40:42.545Z,12.70
2018-11-29T08:43:24.933Z,13.20
2018-11-29T08:46:06.881Z,12.60
2018-11-29T08:47:06.808Z,11.80
2018-11-29T08:48:06.744Z,12.40
2018-11-29T08:49:06.632Z,11.80
2018-11-29T08:50:06.542Z,13.40
2018-11-29T08:51:06.485Z,12.70
2018-11-29T08:52:06.383Z,11.00
2018-11-29T08:53:06.323Z,13.40
2018-11-29T08:54:06.204Z,11.30
2018-11-29T08:55:06.122Z,13.10
2018-11-29T08:56:06.033Z,12.50
2018-11-29T08:57:05.964Z,12.20
2018-11-29T08:58:05.915Z,12.90
2018-11-29T08:59:05.786Z,11.00
2018-11-29T09:00:05.734Z,13.30
2018-11-29T09:01:05.627Z,13.20
2018-11-29T09:02:05.529Z,12.20
2018-11-29T09:04:47.388Z,13.10
2018-11-29T09:05:47.336Z,12.90
2018-11-29T09:06:47.234Z,13.00
2018-11-29T09:07:47.144Z,12.50
2018-11-29T09:08:47.059Z,13.30
2018-11-29T09:09:47.005Z,13.70
2018-11-29T09:10:46.883Z,12.70
2018-11-29T09:13:28.915Z,13.40
2018-11-29T09:16:10.913Z,13.10
2018-11-29T09:18:52.929Z,12.10
2018-11-29T09:19:52.848Z,14.50
2018-11-29T09:20:52.739Z,14.90
2018-11-29T09:21:52.635Z,13.70
2018-11-29T09:22:52.555Z,12.70
2018-11-29T09:23:54.470Z,12.60
2018-11-29T09:24:52.389Z,12.70
2018-11-29T09:25:52.348Z,12.20
2018-11-29T09:26:52.214Z,12.50
2018-11-29T09:27:52.134Z,12.80
2018-11-29T09:28:52.041Z,13.80
2018-11-29T09:31:33.928Z,13.90
2018-11-29T09:32:33.861Z,12.90
2018-11-29T09:33:33.721Z,14.10
2018-11-29T09:34:33.635Z,15.20
2018-11-29T09:35:33.604Z,12.80
2018-11-29T09:36:33.475Z,13.60
2018-11-29T09:37:33.381Z,14.20
2018-11-29T09:40:15.397Z,12.40
2018-11-29T09:41:15.352Z,11.50
2018-11-29T09:42:15.251Z,12.60
2018-11-29T09:43:15.152Z,14.80
2018-11-29T09:44:15.055Z,13.30
2018-11-29T09:45:14.975Z,14.40
2018-11-29T09:46:14.925Z,15.00
2018-11-29T09:48:56.893Z,12.70
2018-11-29T09:49:56.823Z,12.30
2018-11-29T09:50:56.730Z,14.40
2018-11-29T09:51:56.677Z,13.70
2018-11-29T09:52:56.578Z,14.40
2018-11-29T09:53:56.475Z,14.00
2018-11-29T09:54:56.387Z,13.20
2018-11-29T09:55:58.333Z,14.90
2018-11-29T09:56:56.216Z,13.00
2018-11-29T09:57:56.175Z,13.80
2018-11-29T09:58:56.084Z,14.50
2018-11-29T09:59:55.997Z,15.10
2018-11-29T10:00:55.873Z,15.00
2018-11-29T10:01:55.815Z,14.10
2018-11-29T10:02:55.747Z,14.70
2018-11-29T10:03:55.627Z,11.70
2018-11-29T10:04:55.529Z,12.90
2018-11-29T10:05:55.468Z,14.00
2018-11-29T10:06:55.365Z,11.20
2018-11-29T10:07:55.320Z,14.60
2018-11-29T10:08:55.208Z,11.60
2018-11-29T10:11:37.398Z,15.40
2018-11-29T10:12:37.328Z,13.90
2018-11-29T10:13:37.238Z,14.60
2018-11-29T10:14:37.175Z,11.40
2018-11-29T10:15:37.072Z,14.50
2018-11-29T10:16:36.973Z,14.80
2018-11-29T10:17:36.899Z,10.30
2018-11-29T10:18:36.821Z,14.80
2018-11-29T10:19:36.753Z,15.00
2018-11-29T10:20:36.638Z,13.20
2018-11-29T10:21:36.569Z,14.50
2018-11-29T10:22:36.683Z,13.10
2018-11-29T10:23:36.409Z,13.60
2018-11-29T10:24:36.307Z,11.80
2018-11-29T10:25:36.582Z,13.90
2018-11-29T10:26:36.140Z,15.40
2018-11-29T10:27:36.053Z,14.50
2018-11-29T10:28:35.970Z,14.20
2018-11-29T10:29:35.903Z,13.00
2018-11-29T10:30:35.797Z,13.60
2018-11-29T10:31:35.706Z,12.30
2018-11-29T10:32:35.628Z,13.10
2018-11-29T10:33:35.559Z,13.50
2018-11-29T10:34:35.579Z,13.90
2018-11-29T10:35:35.369Z,13.20
2018-11-29T10:38:17.405Z,11.10
2018-11-29T10:39:17.369Z,15.20
2018-11-29T10:40:17.311Z,12.40
2018-11-29T10:41:17.155Z,13.70
2018-11-29T10:42:17.059Z,13.90
2018-11-29T10:43:16.992Z,13.60
2018-11-29T10:44:16.889Z,13.10
2018-11-29T10:45:16.815Z,13.00
2018-11-29T10:46:16.766Z,12.50
2018-11-29T10:47:16.641Z,14.00
2018-11-29T10:48:16.564Z,12.50
2018-11-29T10:50:58.450Z,15.00
2018-11-29T10:53:40.396Z,13.30
2018-11-29T10:54:40.329Z,13.40
2018-11-29T10:55:40.271Z,13.60
2018-11-29T10:56:40.159Z,14.70
2018-11-29T10:57:40.067Z,13.40
2018-11-29T10:58:39.971Z,14.70
2018-11-29T10:59:39.895Z,14.20
2018-11-29T11:00:39.817Z,13.90
2018-11-29T11:01:39.769Z,14.40
2018-11-29T11:04:21.914Z,14.20
2018-11-29T11:05:21.867Z,14.30
2018-11-29T11:06:21.776Z,13.60
2018-11-29T11:07:21.639Z,13.90
2018-11-29T11:08:21.559Z,14.00
2018-11-29T11:09:21.501Z,13.80
2018-11-29T11:10:21.429Z,14.60
2018-11-29T11:11:21.313Z,13.90
2018-11-29T11:12:21.269Z,14.90
2018-11-29T11:13:21.148Z,14.10
2018-11-29T11:14:21.081Z,13.70
2018-11-29T11:17:02.939Z,15.20
2018-11-29T11:18:02.836Z,15.00
2018-11-29T11:19:02.744Z,14.80
2018-11-29T11:20:02.673Z,15.20
2018-11-29T11:21:02.564Z,13.70
2018-11-29T11:22:02.532Z,15.10
2018-11-29T11:23:02.400Z,16.20
2018-11-29T11:24:02.334Z,15.70
2018-11-29T11:25:02.236Z,14.90
2018-11-29T11:27:44.447Z,15.60
2018-11-29T11:28:44.329Z,14.50
2018-11-29T11:29:44.250Z,14.90
2018-11-29T11:32:26.459Z,14.70
2018-11-29T11:35:08.415Z,15.50
2018-11-29T11:37:50.455Z,16.50
2018-11-29T11:38:50.362Z,17.60
2018-11-29T11:39:50.242Z,15.50
2018-11-29T11:40:50.160Z,16.40
2018-11-29T11:41:50.069Z,18.80
2018-11-29T11:42:50.016Z,16.60
2018-11-29T11:43:49.901Z,17.50
2018-11-29T11:46:31.918Z,17.60
2018-11-29T11:47:31.843Z,17.70
2018-11-29T11:48:31.801Z,18.80
2018-11-29T11:51:13.911Z,17.60
2018-11-29T11:52:13.874Z,16.40
2018-11-29T11:53:13.779Z,17.50
2018-11-29T11:54:13.674Z,16.70
2018-11-29T11:55:18.903Z,16.90
2018-11-29T11:56:13.502Z,15.30
2018-11-29T11:57:13.409Z,17.70
2018-11-29T11:59:55.464Z,11.60
2018-11-29T12:02:37.430Z,9.80
2018-11-29T12:05:19.690Z,12.10
2018-11-29T12:06:19.586Z,13.50
2018-11-29T12:07:19.423Z,15.00
2018-11-29T12:08:20.435Z,12.50
2018-11-29T12:09:19.112Z,12.20
2018-11-29T12:10:19.005Z,11.70
2018-11-29T12:11:18.903Z,9.50
2018-11-29T12:12:18.840Z,13.60
2018-11-29T12:13:18.779Z,13.40
2018-11-29T12:14:18.670Z,12.20
2018-11-29T12:15:18.574Z,11.00
2018-11-29T12:16:18.481Z,10.00
2018-11-29T12:17:18.401Z,9.60
2018-11-29T12:18:18.312Z,14.00
2018-11-29T12:19:18.312Z,11.70
2018-11-29T12:20:18.154Z,11.20
2018-11-29T12:21:18.055Z,11.20
2018-11-29T12:23:59.922Z,11.80
2018-11-29T12:25:00.873Z,13.30
2018-11-29T12:25:59.767Z,13.30
2018-11-29T12:26:59.675Z,11.60
2018-11-29T12:27:59.608Z,11.70
2018-11-29T12:28:59.523Z,10.00
2018-11-29T12:29:59.413Z,12.10
2018-11-29T12:30:59.362Z,11.40
2018-11-29T12:31:59.241Z,9.90
2018-11-29T12:32:59.165Z,13.00
2018-11-29T12:33:59.071Z,14.10
2018-11-29T12:36:40.947Z,12.40
2018-11-29T12:39:22.926Z,13.50
2018-11-29T12:40:22.878Z,14.50
2018-11-29T12:41:22.750Z,14.30
2018-11-29T12:44:04.922Z,15.10
2018-11-29T12:45:04.875Z,14.00
2018-11-29T12:46:04.788Z,14.10
2018-11-29T12:47:04.676Z,13.80
2018-11-29T12:48:04.587Z,13.60
2018-11-29T12:49:04.507Z,14.20
2018-11-29T12:50:04.412Z,13.70
2018-11-29T12:51:05.380Z,14.60
2018-11-29T12:52:04.246Z,12.80
2018-11-29T12:53:04.182Z,14.70
2018-11-29T12:54:04.083Z,14.60
2018-11-29T12:55:04.018Z,14.80
2018-11-29T12:56:03.943Z,13.90
2018-11-29T12:57:03.825Z,14.10
2018-11-29T12:58:05.592Z,15.30
2018-11-29T12:59:03.663Z,15.50
2018-11-29T13:00:03.567Z,14.90
2018-11-29T13:01:04.526Z,14.60
2018-11-29T13:02:03.431Z,14.60
2018-11-29T13:04:03.255Z,15.70
2018-11-29T13:06:45.461Z,12.10
2018-11-29T13:07:45.346Z,14.00
2018-11-29T13:08:45.266Z,16.10
2018-11-29T13:09:45.180Z,16.00
2018-11-29T13:10:45.100Z,15.70
2018-11-29T13:11:45.046Z,16.60
2018-11-29T13:12:44.950Z,16.00
2018-11-29T13:13:44.842Z,16.00
2018-11-29T13:14:44.754Z,16.00
2018-11-29T13:17:26.955Z,15.60
2018-11-29T13:18:26.855Z,15.50
2018-11-29T13:19:26.768Z,13.50
2018-11-29T13:20:32.172Z,12.40
2018-11-29T13:21:26.589Z,15.30
2018-11-29T13:22:26.541Z,15.00
2018-11-29T13:23:26.416Z,12.20
2018-11-29T13:24:26.355Z,15.70
2018-11-29T13:25:26.326Z,15.60
2018-11-29T13:26:26.317Z,13.00
2018-11-29T13:27:26.410Z,12.80
2018-11-29T13:28:26.279Z,13.00
2018-11-29T13:29:26.000Z,15.60
2018-11-29T13:32:07.929Z,15.80
2018-11-29T13:33:09.078Z,13.50
2018-11-29T13:34:07.759Z,13.80
2018-11-29T13:35:07.687Z,14.60
2018-11-29T13:36:07.606Z,14.70
2018-11-29T13:38:49.462Z,14.00
2018-11-29T13:41:31.439Z,14.70
2018-11-29T13:42:31.368Z,14.70
2018-11-29T13:43:31.303Z,13.60
2018-11-29T13:44:31.459Z,15.00
2018-11-29T13:45:31.095Z,14.00
2018-11-29T13:48:13.029Z,14.80
2018-11-29T13:49:12.904Z,15.70
2018-11-29T13:50:12.774Z,14.50
2018-11-29T13:51:12.682Z,15.60
2018-11-29T13:52:12.595Z,13.30
2018-11-29T13:53:12.523Z,14.60
2018-11-29T13:54:12.453Z,15.70
2018-11-29T13:55:12.542Z,14.10
2018-11-29T13:56:12.289Z,14.70
2018-11-29T13:57:12.174Z,15.30
2018-11-29T13:58:12.081Z,15.40
2018-11-29T13:59:12.043Z,15.90
2018-11-29T14:00:11.911Z,15.40
2018-11-29T14:01:11.830Z,15.10
2018-11-29T14:02:11.737Z,13.50
2018-11-29T14:04:53.981Z,13.50
2018-11-29T14:05:53.852Z,13.90
2018-11-29T14:06:53.762Z,10.50
2018-11-29T14:07:55.692Z,13.50
2018-11-29T14:08:53.591Z,12.70
2018-11-29T14:09:53.555Z,14.30
2018-11-29T14:10:53.423Z,14.60
2018-11-29T14:13:35.437Z,11.60
2018-11-29T14:14:35.365Z,12.80
2018-11-29T14:15:35.307Z,11.70
2018-11-29T14:16:35.193Z,15.20
2018-11-29T14:17:35.096Z,14.10
2018-11-29T14:18:35.017Z,11.10
2018-11-29T14:19:34.924Z,13.50
2018-11-29T14:20:35.907Z,13.60
2018-11-29T14:21:34.781Z,13.50
2018-11-29T14:22:34.686Z,13.40
2018-11-29T14:23:34.589Z,12.70
2018-11-29T14:24:34.727Z,13.00
2018-11-29T14:25:34.445Z,12.50
2018-11-29T14:28:16.442Z,13.80
2018-11-29T14:29:16.352Z,11.40
2018-11-29T14:30:16.295Z,11.20
2018-11-29T14:31:16.187Z,10.10
2018-11-29T14:32:16.097Z,12.70
2018-11-29T14:33:16.024Z,11.50
2018-11-29T14:34:15.934Z,10.80
2018-11-29T14:35:15.897Z,12.70
2018-11-29T14:36:15.769Z,13.10
2018-11-29T14:37:15.719Z,11.90
2018-11-29T14:38:15.610Z,12.40
2018-11-29T14:40:57.483Z,13.50
2018-11-29T14:41:57.355Z,12.70
2018-11-29T14:42:57.280Z,12.60
2018-11-29T14:43:57.182Z,11.40
2018-11-29T14:44:57.113Z,10.00
2018-11-29T14:45:58.084Z,12.70
2018-11-29T14:46:56.946Z,11.60
2018-11-29T14:47:56.856Z,12.80
2018-11-29T14:48:56.764Z,11.30
2018-11-29T14:49:56.719Z,13.00
2018-11-29T14:51:02.159Z,12.90
2018-11-29T14:51:56.545Z,13.20
2018-11-29T14:52:56.454Z,13.60
2018-11-29T14:55:38.484Z,11.60
2018-11-29T14:58:20.446Z,11.90
2018-11-29T14:59:20.363Z,12.80
2018-11-29T15:00:20.286Z,13.00
2018-11-29T15:01:20.235Z,12.60
2018-11-29T15:02:20.103Z,13.50
2018-11-29T15:05:07.702Z,12.90
2018-11-29T15:07:48.488Z,11.50
2018-11-29T15:08:48.378Z,12.10
2018-11-29T15:09:48.301Z,12.20
2018-11-29T15:10:48.195Z,13.10
2018-11-29T15:11:48.173Z,13.90
2018-11-29T15:12:48.054Z,10.90
2018-11-29T15:13:47.939Z,12.30
2018-11-29T15:14:47.864Z,12.60
2018-11-29T15:15:47.787Z,11.40
2018-11-29T15:16:48.719Z,13.00
2018-11-29T15:17:47.612Z,11.90
2018-11-29T15:18:47.529Z,12.00
2018-11-29T15:19:47.430Z,9.70
2018-11-29T15:22:29.487Z,13.60
2018-11-29T15:23:29.370Z,12.20
2018-11-29T15:24:29.275Z,12.10
2018-11-29T15:25:29.202Z,11.70
2018-11-29T15:26:29.117Z,12.90
2018-11-29T15:27:30.050Z,11.80
2018-11-29T15:28:28.941Z,11.80
2018-11-29T15:31:10.957Z,11.20
2018-11-29T15:32:10.898Z,11.70
2018-11-29T15:33:10.805Z,13.30
2018-11-29T15:34:10.700Z,12.30
2018-11-29T15:35:10.611Z,12.40
2018-11-29T15:36:10.539Z,12.50
2018-11-29T15:37:10.478Z,11.40
2018-11-29T15:38:10.394Z,10.80
2018-11-29T15:39:10.270Z,12.20
2018-11-29T15:41:52.458Z,12.00
2018-11-29T15:42:52.431Z,12.10
2018-11-29T15:43:52.300Z,10.90
2018-11-29T15:44:52.220Z,12.80
2018-11-29T15:45:52.126Z,10.40
2018-11-29T15:48:34.509Z,12.40
2018-11-29T15:49:34.384Z,11.50
2018-11-29T15:50:34.295Z,12.20
2018-11-29T15:51:34.209Z,10.60
2018-11-29T15:52:34.158Z,12.00
2018-11-29T15:55:15.960Z,11.80
2018-11-29T15:56:15.886Z,13.00
2018-11-29T15:57:15.797Z,11.60
2018-11-29T15:58:15.752Z,11.80
2018-11-29T15:59:15.645Z,12.60
2018-11-29T16:00:15.583Z,12.00
2018-11-29T16:01:15.452Z,11.30
2018-11-29T16:02:15.381Z,10.80
2018-11-29T16:03:15.310Z,12.00
2018-11-29T16:04:15.210Z,11.50
2018-11-29T16:05:15.111Z,10.80
2018-11-29T16:06:15.037Z,12.00
2018-11-29T16:07:14.953Z,10.90
2018-11-29T16:08:16.907Z,10.70
2018-11-29T16:09:14.814Z,11.50
2018-11-29T16:10:14.708Z,11.50
2018-11-29T16:11:14.613Z,11.40
2018-11-29T16:12:14.536Z,11.40
2018-11-29T16:13:14.443Z,11.50
2018-11-29T16:14:14.399Z,10.70
2018-11-29T16:15:14.285Z,10.70
2018-11-29T16:16:14.199Z,11.10
2018-11-29T16:17:14.111Z,10.10
2018-11-29T16:19:55.988Z,10.70
2018-11-29T16:20:55.889Z,11.20
2018-11-29T16:21:55.882Z,10.60
2018-11-29T16:24:38.001Z,9.40
2018-11-29T16:27:19.960Z,10.40
2018-11-29T16:28:19.890Z,11.10
2018-11-29T16:29:19.792Z,11.40
2018-11-29T16:30:19.753Z,11.00
2018-11-29T16:31:19.634Z,11.10
2018-11-29T16:32:19.573Z,11.10
2018-11-29T16:33:19.464Z,10.50
2018-11-29T16:36:01.509Z,9.80
2018-11-29T16:37:01.398Z,11.00
2018-11-29T16:38:01.324Z,9.60
2018-11-29T16:39:01.227Z,9.20
2018-11-29T16:40:01.144Z,10.10
2018-11-29T16:41:02.102Z,9.10